sensor_id;sensor_type;location;lat;lon;timestamp;P1;durP1;ratioP1;P2;durP2;ratioP2
1591;SDS011;789;51.612;7.510;2023-01-13T00:00:33;1.20;;;0.63;;
1591;SDS011;789;51.612;7.510;2023-01-13T00:03:00;1.47;;;0.60;;
1591;SDS011;789;51.612;7.510;2023-01-13T00:05:26;1.53;;;0.60;;
1591;SDS011;789;51.612;7.510;2023-01-13T00:07:53;1.20;;;0.57;;
1591;SDS011;789;51.612;7.510;2023-01-13T00:10:20;2.43;;;0.70;;
1591;SDS011;789;51.612;7.510;2023-01-13T00:12:46;1.23;;;0.70;;
1591;SDS011;789;51.612;7.510;2023-01-13T00:15:13;1.17;;;0.50;;
1591;SDS011;789;51.612;7.510;2023-01-13T00:17:41;0.60;;;0.60;;
1591;SDS011;789;51.612;7.510;2023-01-13T00:20:08;1.00;;;0.70;;
1591;SDS011;789;51.612;7.510;2023-01-13T00:22:36;1.87;;;0.67;;
1591;SDS011;789;51.612;7.510;2023-01-13T00:25:03;1.03;;;0.50;;
1591;SDS011;789;51.612;7.510;2023-01-13T00:27:30;0.87;;;0.60;;
1591;SDS011;789;51.612;7.510;2023-01-13T00:29:57;0.60;;;0.53;;
1591;SDS011;789;51.612;7.510;2023-01-13T00:32:24;1.13;;;0.60;;
1591;SDS011;789;51.612;7.510;2023-01-13T00:34:52;1.67;;;0.90;;
1591;SDS011;789;51.612;7.510;2023-01-13T00:37:19;0.90;;;0.70;;
1591;SDS011;789;51.612;7.510;2023-01-13T00:39:46;0.90;;;0.80;;
1591;SDS011;789;51.612;7.510;2023-01-13T00:42:13;0.80;;;0.80;;
1591;SDS011;789;51.612;7.510;2023-01-13T00:44:57;1.07;;;1.07;;
1591;SDS011;789;51.612;7.510;2023-01-13T00:47:24;1.30;;;0.73;;
1591;SDS011;789;51.612;7.510;2023-01-13T00:49:50;1.80;;;0.93;;
1591;SDS011;789;51.612;7.510;2023-01-13T00:52:18;0.87;;;0.87;;
1591;SDS011;789;51.612;7.510;2023-01-13T00:54:45;1.20;;;1.00;;
1591;SDS011;789;51.612;7.510;2023-01-13T00:57:12;1.40;;;1.30;;
1591;SDS011;789;51.612;7.510;2023-01-13T00:59:39;1.50;;;1.40;;
1591;SDS011;789;51.612;7.510;2023-01-13T01:02:06;0.83;;;0.83;;
1591;SDS011;789;51.612;7.510;2023-01-13T01:04:32;1.97;;;1.00;;
1591;SDS011;789;51.612;7.510;2023-01-13T01:07:00;1.33;;;1.10;;
1591;SDS011;789;51.612;7.510;2023-01-13T01:09:27;3.67;;;1.50;;
1591;SDS011;789;51.612;7.510;2023-01-13T01:11:57;2.20;;;1.37;;
1591;SDS011;789;51.612;7.510;2023-01-13T01:14:24;4.03;;;1.30;;
1591;SDS011;789;51.612;7.510;2023-01-13T01:16:51;1.70;;;0.90;;
1591;SDS011;789;51.612;7.510;2023-01-13T01:19:18;2.83;;;1.50;;
1591;SDS011;789;51.612;7.510;2023-01-13T01:21:45;5.80;;;1.80;;
1591;SDS011;789;51.612;7.510;2023-01-13T01:24:13;4.47;;;1.27;;
1591;SDS011;789;51.612;7.510;2023-01-13T01:26:40;3.93;;;1.40;;
1591;SDS011;789;51.612;7.510;2023-01-13T01:29:07;8.33;;;1.87;;
1591;SDS011;789;51.612;7.510;2023-01-13T01:31:36;6.43;;;1.70;;
1591;SDS011;789;51.612;7.510;2023-01-13T01:34:03;3.73;;;1.30;;
1591;SDS011;789;51.612;7.510;2023-01-13T01:36:32;5.90;;;1.50;;
1591;SDS011;789;51.612;7.510;2023-01-13T01:39:00;5.87;;;1.70;;
1591;SDS011;789;51.612;7.510;2023-01-13T01:41:29;4.30;;;1.40;;
1591;SDS011;789;51.612;7.510;2023-01-13T01:43:58;4.70;;;1.80;;
1591;SDS011;789;51.612;7.510;2023-01-13T01:46:28;4.90;;;2.10;;
1591;SDS011;789;51.612;7.510;2023-01-13T01:48:58;8.87;;;2.00;;
1591;SDS011;789;51.612;7.510;2023-01-13T01:51:31;7.17;;;1.70;;
1591;SDS011;789;51.612;7.510;2023-01-13T01:54:01;11.03;;;3.07;;
1591;SDS011;789;51.612;7.510;2023-01-13T01:56:33;7.60;;;1.77;;
1591;SDS011;789;51.612;7.510;2023-01-13T01:59:02;6.00;;;1.70;;
1591;SDS011;789;51.612;7.510;2023-01-13T02:01:29;4.80;;;1.60;;
1591;SDS011;789;51.612;7.510;2023-01-13T02:03:58;4.00;;;1.60;;
1591;SDS011;789;51.612;7.510;2023-01-13T02:06:30;3.93;;;1.87;;
1591;SDS011;789;51.612;7.510;2023-01-13T02:08:56;12.63;;;1.80;;
1591;SDS011;789;51.612;7.510;2023-01-13T02:11:28;3.27;;;1.67;;
1591;SDS011;789;51.612;7.510;2023-01-13T02:14:15;4.73;;;1.53;;
1591;SDS011;789;51.612;7.510;2023-01-13T02:16:45;6.13;;;1.67;;
1591;SDS011;789;51.612;7.510;2023-01-13T02:19:26;2.80;;;1.30;;
1591;SDS011;789;51.612;7.510;2023-01-13T02:22:11;6.67;;;2.30;;
1591;SDS011;789;51.612;7.510;2023-01-13T02:24:56;5.83;;;1.70;;
1591;SDS011;789;51.612;7.510;2023-01-13T02:27:51;5.43;;;2.30;;
1591;SDS011;789;51.612;7.510;2023-01-13T02:30:42;7.00;;;1.60;;
1591;SDS011;789;51.612;7.510;2023-01-13T02:33:40;14.90;;;2.90;;
1591;SDS011;789;51.612;7.510;2023-01-13T02:36:18;12.43;;;2.40;;
1591;SDS011;789;51.612;7.510;2023-01-13T02:38:52;12.07;;;2.23;;
1591;SDS011;789;51.612;7.510;2023-01-13T02:41:24;9.00;;;2.23;;
1591;SDS011;789;51.612;7.510;2023-01-13T02:44:11;7.60;;;2.43;;
1591;SDS011;789;51.612;7.510;2023-01-13T02:46:48;13.53;;;2.80;;
1591;SDS011;789;51.612;7.510;2023-01-13T02:49:19;12.63;;;2.80;;
1591;SDS011;789;51.612;7.510;2023-01-13T02:51:57;8.97;;;2.77;;
1591;SDS011;789;51.612;7.510;2023-01-13T02:54:31;9.23;;;2.10;;
1591;SDS011;789;51.612;7.510;2023-01-13T02:56:59;9.97;;;2.47;;
1591;SDS011;789;51.612;7.510;2023-01-13T02:59:27;10.30;;;2.60;;
1591;SDS011;789;51.612;7.510;2023-01-13T03:01:57;9.80;;;2.50;;
1591;SDS011;789;51.612;7.510;2023-01-13T03:07:11;9.00;;;2.60;;
1591;SDS011;789;51.612;7.510;2023-01-13T03:09:48;13.80;;;3.07;;
1591;SDS011;789;51.612;7.510;2023-01-13T03:12:22;10.00;;;2.50;;
1591;SDS011;789;51.612;7.510;2023-01-13T03:15:00;10.40;;;2.40;;
1591;SDS011;789;51.612;7.510;2023-01-13T03:17:39;10.50;;;2.40;;
1591;SDS011;789;51.612;7.510;2023-01-13T03:20:11;11.60;;;2.30;;
1591;SDS011;789;51.612;7.510;2023-01-13T03:22:43;11.23;;;3.00;;
1591;SDS011;789;51.612;7.510;2023-01-13T03:25:21;8.83;;;2.70;;
1591;SDS011;789;51.612;7.510;2023-01-13T03:27:51;9.10;;;2.83;;
1591;SDS011;789;51.612;7.510;2023-01-13T03:30:21;8.13;;;2.40;;
1591;SDS011;789;51.612;7.510;2023-01-13T03:32:54;12.37;;;2.80;;
1591;SDS011;789;51.612;7.510;2023-01-13T03:35:28;10.53;;;2.63;;
1591;SDS011;789;51.612;7.510;2023-01-13T03:37:59;11.33;;;2.87;;
1591;SDS011;789;51.612;7.510;2023-01-13T03:40:31;7.00;;;2.33;;
1591;SDS011;789;51.612;7.510;2023-01-13T03:43:01;10.60;;;2.70;;
1591;SDS011;789;51.612;7.510;2023-01-13T03:45:51;10.50;;;2.60;;
1591;SDS011;789;51.612;7.510;2023-01-13T03:48:24;11.87;;;3.47;;
1591;SDS011;789;51.612;7.510;2023-01-13T03:50:52;11.20;;;2.43;;
1591;SDS011;789;51.612;7.510;2023-01-13T03:53:23;12.00;;;2.33;;
1591;SDS011;789;51.612;7.510;2023-01-13T03:55:54;19.43;;;3.60;;
1591;SDS011;789;51.612;7.510;2023-01-13T03:58:26;6.03;;;2.30;;
1591;SDS011;789;51.612;7.510;2023-01-13T04:00:57;9.80;;;2.43;;
1591;SDS011;789;51.612;7.510;2023-01-13T04:03:28;11.10;;;2.50;;
1591;SDS011;789;51.612;7.510;2023-01-13T04:06:03;12.50;;;3.30;;
1591;SDS011;789;51.612;7.510;2023-01-13T04:08:37;10.70;;;1.77;;
1591;SDS011;789;51.612;7.510;2023-01-13T04:11:15;8.37;;;2.43;;
1591;SDS011;789;51.612;7.510;2023-01-13T04:13:46;8.43;;;2.20;;
1591;SDS011;789;51.612;7.510;2023-01-13T04:16:14;8.80;;;2.30;;
1591;SDS011;789;51.612;7.510;2023-01-13T04:18:42;6.83;;;1.97;;
1591;SDS011;789;51.612;7.510;2023-01-13T04:21:09;3.90;;;1.83;;
1591;SDS011;789;51.612;7.510;2023-01-13T04:23:36;12.37;;;2.30;;
1591;SDS011;789;51.612;7.510;2023-01-13T04:26:03;4.93;;;1.50;;
1591;SDS011;789;51.612;7.510;2023-01-13T04:28:30;9.40;;;2.13;;
1591;SDS011;789;51.612;7.510;2023-01-13T04:30:57;10.40;;;2.40;;
1591;SDS011;789;51.612;7.510;2023-01-13T04:33:24;6.83;;;1.83;;
1591;SDS011;789;51.612;7.510;2023-01-13T04:35:52;6.87;;;2.10;;
1591;SDS011;789;51.612;7.510;2023-01-13T04:38:19;5.47;;;2.10;;
1591;SDS011;789;51.612;7.510;2023-01-13T04:40:47;10.13;;;2.00;;
1591;SDS011;789;51.612;7.510;2023-01-13T04:43:13;7.67;;;2.10;;
1591;SDS011;789;51.612;7.510;2023-01-13T04:45:40;5.13;;;1.60;;
1591;SDS011;789;51.612;7.510;2023-01-13T04:48:07;5.27;;;1.67;;
1591;SDS011;789;51.612;7.510;2023-01-13T04:50:34;5.50;;;1.60;;
1591;SDS011;789;51.612;7.510;2023-01-13T04:53:02;6.67;;;1.63;;
1591;SDS011;789;51.612;7.510;2023-01-13T04:55:29;6.97;;;1.90;;
1591;SDS011;789;51.612;7.510;2023-01-13T04:58:00;8.40;;;2.13;;
1591;SDS011;789;51.612;7.510;2023-01-13T05:00:27;5.70;;;1.73;;
1591;SDS011;789;51.612;7.510;2023-01-13T05:02:54;7.50;;;1.60;;
1591;SDS011;789;51.612;7.510;2023-01-13T05:05:20;8.13;;;1.60;;
1591;SDS011;789;51.612;7.510;2023-01-13T05:07:47;12.07;;;2.23;;
1591;SDS011;789;51.612;7.510;2023-01-13T05:10:15;12.03;;;1.67;;
1591;SDS011;789;51.612;7.510;2023-01-13T05:12:42;8.67;;;2.03;;
1591;SDS011;789;51.612;7.510;2023-01-13T05:15:27;12.47;;;1.80;;
1591;SDS011;789;51.612;7.510;2023-01-13T05:18:13;9.87;;;2.30;;
1591;SDS011;789;51.612;7.510;2023-01-13T05:20:49;9.20;;;2.47;;
1591;SDS011;789;51.612;7.510;2023-01-13T05:23:15;10.83;;;2.40;;
1591;SDS011;789;51.612;7.510;2023-01-13T05:26:01;10.00;;;1.77;;
1591;SDS011;789;51.612;7.510;2023-01-13T05:28:29;8.10;;;2.13;;
1591;SDS011;789;51.612;7.510;2023-01-13T05:30:57;13.37;;;2.43;;
1591;SDS011;789;51.612;7.510;2023-01-13T05:33:24;17.83;;;3.40;;
1591;SDS011;789;51.612;7.510;2023-01-13T05:35:50;13.70;;;2.67;;
1591;SDS011;789;51.612;7.510;2023-01-13T05:38:17;10.43;;;2.37;;
1591;SDS011;789;51.612;7.510;2023-01-13T05:40:44;13.60;;;2.97;;
1591;SDS011;789;51.612;7.510;2023-01-13T05:43:30;16.80;;;3.17;;
1591;SDS011;789;51.612;7.510;2023-01-13T05:45:57;17.42;;;3.08;;
1591;SDS011;789;51.612;7.510;2023-01-13T05:48:28;15.00;;;2.73;;
1591;SDS011;789;51.612;7.510;2023-01-13T05:50:55;9.13;;;2.17;;
1591;SDS011;789;51.612;7.510;2023-01-13T05:53:22;10.90;;;3.03;;
1591;SDS011;789;51.612;7.510;2023-01-13T05:55:50;10.20;;;3.17;;
1591;SDS011;789;51.612;7.510;2023-01-13T05:58:18;11.77;;;3.00;;
1591;SDS011;789;51.612;7.510;2023-01-13T06:00:48;17.90;;;5.13;;
1591;SDS011;789;51.612;7.510;2023-01-13T06:03:17;10.20;;;3.20;;
1591;SDS011;789;51.612;7.510;2023-01-13T06:05:45;16.17;;;4.77;;
1591;SDS011;789;51.612;7.510;2023-01-13T06:08:12;7.80;;;2.40;;
1591;SDS011;789;51.612;7.510;2023-01-13T06:10:39;10.33;;;2.90;;
1591;SDS011;789;51.612;7.510;2023-01-13T06:13:05;14.73;;;3.30;;
1591;SDS011;789;51.612;7.510;2023-01-13T06:15:32;9.30;;;2.60;;
1591;SDS011;789;51.612;7.510;2023-01-13T06:18:02;8.83;;;2.60;;
1591;SDS011;789;51.612;7.510;2023-01-13T06:20:29;9.20;;;2.23;;
1591;SDS011;789;51.612;7.510;2023-01-13T06:22:57;10.83;;;2.73;;
1591;SDS011;789;51.612;7.510;2023-01-13T06:25:29;8.60;;;2.35;;
1591;SDS011;789;51.612;7.510;2023-01-13T06:28:03;7.47;;;2.57;;
1591;SDS011;789;51.612;7.510;2023-01-13T06:30:31;12.17;;;2.83;;
1591;SDS011;789;51.612;7.510;2023-01-13T06:33:03;9.47;;;2.20;;
1591;SDS011;789;51.612;7.510;2023-01-13T06:35:34;8.13;;;2.30;;
1591;SDS011;789;51.612;7.510;2023-01-13T06:38:04;9.90;;;2.30;;
1591;SDS011;789;51.612;7.510;2023-01-13T06:40:34;15.43;;;2.70;;
1591;SDS011;789;51.612;7.510;2023-01-13T06:43:01;8.70;;;3.13;;
1591;SDS011;789;51.612;7.510;2023-01-13T06:45:40;10.18;;;2.50;;
1591;SDS011;789;51.612;7.510;2023-01-13T06:48:11;7.60;;;2.20;;
1591;SDS011;789;51.612;7.510;2023-01-13T06:50:37;11.02;;;2.53;;
1591;SDS011;789;51.612;7.510;2023-01-13T06:53:06;10.03;;;2.53;;
1591;SDS011;789;51.612;7.510;2023-01-13T06:55:32;10.00;;;2.47;;
1591;SDS011;789;51.612;7.510;2023-01-13T06:57:59;8.68;;;2.28;;
1591;SDS011;789;51.612;7.510;2023-01-13T07:00:26;11.47;;;2.53;;
1591;SDS011;789;51.612;7.510;2023-01-13T07:02:53;11.73;;;2.37;;
1591;SDS011;789;51.612;7.510;2023-01-13T07:05:34;12.20;;;2.60;;
1591;SDS011;789;51.612;7.510;2023-01-13T07:08:01;10.00;;;2.37;;
1591;SDS011;789;51.612;7.510;2023-01-13T07:10:27;13.73;;;2.60;;
1591;SDS011;789;51.612;7.510;2023-01-13T07:12:55;7.07;;;2.50;;
1591;SDS011;789;51.612;7.510;2023-01-13T07:15:50;10.10;;;2.40;;
1591;SDS011;789;51.612;7.510;2023-01-13T07:18:18;11.57;;;2.50;;
1591;SDS011;789;51.612;7.510;2023-01-13T07:20:51;12.00;;;2.43;;
1591;SDS011;789;51.612;7.510;2023-01-13T07:23:19;8.87;;;3.20;;
1591;SDS011;789;51.612;7.510;2023-01-13T07:25:45;6.80;;;2.20;;
1591;SDS011;789;51.612;7.510;2023-01-13T07:28:30;10.07;;;1.93;;
1591;SDS011;789;51.612;7.510;2023-01-13T07:30:57;13.87;;;3.13;;
1591;SDS011;789;51.612;7.510;2023-01-13T07:33:24;12.93;;;2.57;;
1591;SDS011;789;51.612;7.510;2023-01-13T07:35:55;12.53;;;2.23;;
1591;SDS011;789;51.612;7.510;2023-01-13T07:38:23;11.27;;;3.00;;
1591;SDS011;789;51.612;7.510;2023-01-13T07:40:50;9.10;;;3.13;;
1591;SDS011;789;51.612;7.510;2023-01-13T07:43:16;8.93;;;2.53;;
1591;SDS011;789;51.612;7.510;2023-01-13T07:45:58;10.27;;;2.83;;
1591;SDS011;789;51.612;7.510;2023-01-13T07:48:25;13.07;;;2.90;;
1591;SDS011;789;51.612;7.510;2023-01-13T07:50:52;11.63;;;2.60;;
1591;SDS011;789;51.612;7.510;2023-01-13T07:53:21;13.30;;;2.87;;
1591;SDS011;789;51.612;7.510;2023-01-13T07:55:53;9.07;;;2.80;;
1591;SDS011;789;51.612;7.510;2023-01-13T07:58:23;8.53;;;2.20;;
1591;SDS011;789;51.612;7.510;2023-01-13T08:00:53;12.20;;;2.47;;
1591;SDS011;789;51.612;7.510;2023-01-13T08:03:24;16.00;;;2.73;;
1591;SDS011;789;51.612;7.510;2023-01-13T08:05:52;11.67;;;2.40;;
1591;SDS011;789;51.612;7.510;2023-01-13T08:08:18;8.13;;;2.10;;
1591;SDS011;789;51.612;7.510;2023-01-13T08:10:47;8.48;;;2.40;;
1591;SDS011;789;51.612;7.510;2023-01-13T08:13:14;8.53;;;2.10;;
1591;SDS011;789;51.612;7.510;2023-01-13T08:15:45;8.67;;;2.23;;
1591;SDS011;789;51.612;7.510;2023-01-13T08:18:14;9.63;;;1.90;;
1591;SDS011;789;51.612;7.510;2023-01-13T08:20:41;6.47;;;2.10;;
1591;SDS011;789;51.612;7.510;2023-01-13T08:23:08;8.27;;;2.20;;
1591;SDS011;789;51.612;7.510;2023-01-13T08:25:35;11.43;;;2.83;;
1591;SDS011;789;51.612;7.510;2023-01-13T08:28:03;10.43;;;2.20;;
1591;SDS011;789;51.612;7.510;2023-01-13T08:30:30;8.03;;;2.10;;
1591;SDS011;789;51.612;7.510;2023-01-13T08:32:57;9.90;;;2.20;;
1591;SDS011;789;51.612;7.510;2023-01-13T08:35:24;10.00;;;2.30;;
1591;SDS011;789;51.612;7.510;2023-01-13T08:38:01;12.50;;;2.60;;
1591;SDS011;789;51.612;7.510;2023-01-13T08:40:28;9.53;;;2.17;;
1591;SDS011;789;51.612;7.510;2023-01-13T08:42:58;6.03;;;1.83;;
1591;SDS011;789;51.612;7.510;2023-01-13T08:45:28;11.63;;;2.50;;
1591;SDS011;789;51.612;7.510;2023-01-13T08:47:58;7.80;;;2.37;;
1591;SDS011;789;51.612;7.510;2023-01-13T08:50:25;10.83;;;2.47;;
1591;SDS011;789;51.612;7.510;2023-01-13T08:53:05;7.70;;;2.27;;
1591;SDS011;789;51.612;7.510;2023-01-13T08:55:32;8.30;;;2.53;;
1591;SDS011;789;51.612;7.510;2023-01-13T08:57:59;9.40;;;2.53;;
1591;SDS011;789;51.612;7.510;2023-01-13T09:00:25;12.50;;;3.00;;
1591;SDS011;789;51.612;7.510;2023-01-13T09:02:53;12.87;;;4.10;;
1591;SDS011;789;51.612;7.510;2023-01-13T09:05:20;8.18;;;2.70;;
1591;SDS011;789;51.612;7.510;2023-01-13T09:07:47;9.63;;;3.10;;
1591;SDS011;789;51.612;7.510;2023-01-13T09:10:15;10.90;;;2.93;;
1591;SDS011;789;51.612;7.510;2023-01-13T09:12:42;8.70;;;2.40;;
1591;SDS011;789;51.612;7.510;2023-01-13T09:15:26;12.87;;;3.20;;
1591;SDS011;789;51.612;7.510;2023-01-13T09:17:54;12.63;;;2.87;;
1591;SDS011;789;51.612;7.510;2023-01-13T09:20:21;12.70;;;2.80;;
1591;SDS011;789;51.612;7.510;2023-01-13T09:22:47;10.67;;;3.10;;
1591;SDS011;789;51.612;7.510;2023-01-13T09:25:17;11.73;;;2.77;;
1591;SDS011;789;51.612;7.510;2023-01-13T09:27:44;12.97;;;3.43;;
1591;SDS011;789;51.612;7.510;2023-01-13T09:30:11;18.43;;;2.77;;
1591;SDS011;789;51.612;7.510;2023-01-13T09:32:38;10.07;;;2.40;;
1591;SDS011;789;51.612;7.510;2023-01-13T09:35:07;7.37;;;2.87;;
1591;SDS011;789;51.612;7.510;2023-01-13T09:37:34;8.37;;;2.23;;
1591;SDS011;789;51.612;7.510;2023-01-13T09:40:07;15.50;;;2.70;;
1591;SDS011;789;51.612;7.510;2023-01-13T09:42:41;11.67;;;2.47;;
1591;SDS011;789;51.612;7.510;2023-01-13T09:45:32;9.80;;;2.40;;
1591;SDS011;789;51.612;7.510;2023-01-13T09:48:06;8.30;;;2.53;;
1591;SDS011;789;51.612;7.510;2023-01-13T09:50:48;9.83;;;2.30;;
1591;SDS011;789;51.612;7.510;2023-01-13T09:53:21;16.17;;;2.90;;
1591;SDS011;789;51.612;7.510;2023-01-13T09:55:53;13.30;;;2.80;;
1591;SDS011;789;51.612;7.510;2023-01-13T09:58:20;13.20;;;3.17;;
1591;SDS011;789;51.612;7.510;2023-01-13T10:00:51;12.47;;;3.10;;
1591;SDS011;789;51.612;7.510;2023-01-13T10:03:32;11.47;;;3.00;;
1591;SDS011;789;51.612;7.510;2023-01-13T10:06:03;21.37;;;4.03;;
1591;SDS011;789;51.612;7.510;2023-01-13T10:08:36;13.90;;;3.27;;
1591;SDS011;789;51.612;7.510;2023-01-13T10:11:09;13.60;;;3.43;;
1591;SDS011;789;51.612;7.510;2023-01-13T10:14:00;12.43;;;3.50;;
1591;SDS011;789;51.612;7.510;2023-01-13T10:16:32;10.95;;;3.33;;
1591;SDS011;789;51.612;7.510;2023-01-13T10:19:09;17.37;;;3.87;;
1591;SDS011;789;51.612;7.510;2023-01-13T10:21:46;15.00;;;3.00;;
1591;SDS011;789;51.612;7.510;2023-01-13T10:24:45;12.97;;;3.40;;
1591;SDS011;789;51.612;7.510;2023-01-13T10:27:28;15.50;;;3.27;;
1591;SDS011;789;51.612;7.510;2023-01-13T10:29:58;13.07;;;3.50;;
1591;SDS011;789;51.612;7.510;2023-01-13T10:32:35;11.27;;;3.13;;
1591;SDS011;789;51.612;7.510;2023-01-13T10:35:01;21.13;;;4.57;;
1591;SDS011;789;51.612;7.510;2023-01-13T10:37:30;15.87;;;3.53;;
1591;SDS011;789;51.612;7.510;2023-01-13T10:39:59;17.00;;;2.73;;
1591;SDS011;789;51.612;7.510;2023-01-13T10:42:27;14.00;;;3.90;;
1591;SDS011;789;51.612;7.510;2023-01-13T10:44:54;22.73;;;3.43;;
1591;SDS011;789;51.612;7.510;2023-01-13T10:47:23;16.40;;;3.63;;
1591;SDS011;789;51.612;7.510;2023-01-13T10:50:15;10.37;;;3.07;;
1591;SDS011;789;51.612;7.510;2023-01-13T10:52:58;14.27;;;3.40;;
1591;SDS011;789;51.612;7.510;2023-01-13T10:55:27;21.83;;;4.50;;
1591;SDS011;789;51.612;7.510;2023-01-13T10:57:57;15.67;;;4.20;;
1591;SDS011;789;51.612;7.510;2023-01-13T11:00:37;9.43;;;2.80;;
1591;SDS011;789;51.612;7.510;2023-01-13T11:03:11;13.37;;;4.03;;
1591;SDS011;789;51.612;7.510;2023-01-13T11:05:46;15.40;;;3.10;;
1591;SDS011;789;51.612;7.510;2023-01-13T11:08:17;21.10;;;4.17;;
1591;SDS011;789;51.612;7.510;2023-01-13T11:10:45;11.37;;;3.60;;
1591;SDS011;789;51.612;7.510;2023-01-13T11:13:14;16.03;;;3.57;;
1591;SDS011;789;51.612;7.510;2023-01-13T11:15:44;16.93;;;3.80;;
1591;SDS011;789;51.612;7.510;2023-01-13T11:18:18;12.23;;;2.93;;
1591;SDS011;789;51.612;7.510;2023-01-13T11:20:51;14.07;;;3.50;;
1591;SDS011;789;51.612;7.510;2023-01-13T11:23:22;17.40;;;3.73;;
1591;SDS011;789;51.612;7.510;2023-01-13T11:25:56;11.97;;;3.53;;
1591;SDS011;789;51.612;7.510;2023-01-13T11:28:34;16.30;;;4.30;;
1591;SDS011;789;51.612;7.510;2023-01-13T11:31:08;17.13;;;3.63;;
1591;SDS011;789;51.612;7.510;2023-01-13T11:33:40;15.67;;;3.80;;
1591;SDS011;789;51.612;7.510;2023-01-13T11:36:10;13.83;;;4.10;;
1591;SDS011;789;51.612;7.510;2023-01-13T11:38:43;15.07;;;3.27;;
1591;SDS011;789;51.612;7.510;2023-01-13T11:41:16;12.93;;;3.60;;
1591;SDS011;789;51.612;7.510;2023-01-13T11:43:52;17.87;;;3.50;;
1591;SDS011;789;51.612;7.510;2023-01-13T11:46:24;14.03;;;3.27;;
1591;SDS011;789;51.612;7.510;2023-01-13T11:48:52;18.77;;;3.90;;
1591;SDS011;789;51.612;7.510;2023-01-13T11:51:24;15.20;;;3.70;;
1591;SDS011;789;51.612;7.510;2023-01-13T11:54:04;14.70;;;3.13;;
1591;SDS011;789;51.612;7.510;2023-01-13T11:56:56;16.27;;;4.30;;
1591;SDS011;789;51.612;7.510;2023-01-13T11:59:55;14.03;;;3.80;;
1591;SDS011;789;51.612;7.510;2023-01-13T12:02:50;17.70;;;4.30;;
1591;SDS011;789;51.612;7.510;2023-01-13T12:05:23;14.53;;;3.57;;
1591;SDS011;789;51.612;7.510;2023-01-13T12:07:57;13.33;;;3.30;;
1591;SDS011;789;51.612;7.510;2023-01-13T12:10:42;10.37;;;3.43;;
1591;SDS011;789;51.612;7.510;2023-01-13T12:13:28;12.90;;;3.37;;
1591;SDS011;789;51.612;7.510;2023-01-13T12:16:10;16.30;;;3.33;;
1591;SDS011;789;51.612;7.510;2023-01-13T12:21:37;17.73;;;3.60;;
1591;SDS011;789;51.612;7.510;2023-01-13T12:24:10;9.17;;;2.90;;
1591;SDS011;789;51.612;7.510;2023-01-13T12:26:45;16.77;;;3.30;;
1591;SDS011;789;51.612;7.510;2023-01-13T12:29:18;14.27;;;3.33;;
1591;SDS011;789;51.612;7.510;2023-01-13T12:31:45;19.80;;;3.37;;
1591;SDS011;789;51.612;7.510;2023-01-13T12:34:20;13.47;;;3.27;;
1591;SDS011;789;51.612;7.510;2023-01-13T12:36:57;14.57;;;3.63;;
1591;SDS011;789;51.612;7.510;2023-01-13T12:39:34;15.00;;;3.93;;
1591;SDS011;789;51.612;7.510;2023-01-13T12:42:10;13.17;;;3.60;;
1591;SDS011;789;51.612;7.510;2023-01-13T12:45:04;15.13;;;3.80;;
1591;SDS011;789;51.612;7.510;2023-01-13T12:47:33;11.10;;;3.27;;
1591;SDS011;789;51.612;7.510;2023-01-13T12:53:27;10.23;;;3.03;;
1591;SDS011;789;51.612;7.510;2023-01-13T13:02:26;10.47;;;2.70;;
1591;SDS011;789;51.612;7.510;2023-01-13T13:04:56;9.73;;;2.90;;
1591;SDS011;789;51.612;7.510;2023-01-13T13:07:31;7.70;;;3.03;;
1591;SDS011;789;51.612;7.510;2023-01-13T13:10:09;7.53;;;3.00;;
1591;SDS011;789;51.612;7.510;2023-01-13T13:12:50;7.83;;;2.93;;
1591;SDS011;789;51.612;7.510;2023-01-13T13:15:36;11.37;;;3.70;;
1591;SDS011;789;51.612;7.510;2023-01-13T13:18:18;12.93;;;3.67;;
1591;SDS011;789;51.612;7.510;2023-01-13T13:21:02;11.10;;;3.63;;
1591;SDS011;789;51.612;7.510;2023-01-13T13:23:43;15.20;;;3.87;;
1591;SDS011;789;51.612;7.510;2023-01-13T13:26:30;17.30;;;3.80;;
1591;SDS011;789;51.612;7.510;2023-01-13T13:29:09;11.77;;;3.30;;
1591;SDS011;789;51.612;7.510;2023-01-13T13:31:51;12.87;;;3.60;;
1591;SDS011;789;51.612;7.510;2023-01-13T13:34:49;14.97;;;4.10;;
1591;SDS011;789;51.612;7.510;2023-01-13T13:37:26;14.63;;;4.10;;
1591;SDS011;789;51.612;7.510;2023-01-13T13:40:19;13.80;;;4.00;;
1591;SDS011;789;51.612;7.510;2023-01-13T13:43:04;9.23;;;3.10;;
1591;SDS011;789;51.612;7.510;2023-01-13T13:45:54;9.53;;;3.60;;
1591;SDS011;789;51.612;7.510;2023-01-13T13:48:38;8.47;;;3.20;;
1591;SDS011;789;51.612;7.510;2023-01-13T13:51:21;10.30;;;3.40;;
1591;SDS011;789;51.612;7.510;2023-01-13T13:53:50;10.30;;;3.20;;
1591;SDS011;789;51.612;7.510;2023-01-13T13:56:20;10.67;;;3.23;;
1591;SDS011;789;51.612;7.510;2023-01-13T13:58:49;9.27;;;3.27;;
1591;SDS011;789;51.612;7.510;2023-01-13T14:01:18;10.23;;;3.00;;
1591;SDS011;789;51.612;7.510;2023-01-13T14:04:00;18.83;;;4.37;;
1591;SDS011;789;51.612;7.510;2023-01-13T14:06:30;13.00;;;4.10;;
1591;SDS011;789;51.612;7.510;2023-01-13T14:08:58;12.20;;;4.10;;
1591;SDS011;789;51.612;7.510;2023-01-13T14:11:25;9.97;;;2.53;;
1591;SDS011;789;51.612;7.510;2023-01-13T14:13:59;7.63;;;2.67;;
1591;SDS011;789;51.612;7.510;2023-01-13T14:16:27;5.30;;;2.70;;
1591;SDS011;789;51.612;7.510;2023-01-13T14:18:54;7.47;;;2.80;;
1591;SDS011;789;51.612;7.510;2023-01-13T14:21:22;9.53;;;4.00;;
1591;SDS011;789;51.612;7.510;2023-01-13T14:23:53;16.60;;;4.27;;
1591;SDS011;789;51.612;7.510;2023-01-13T14:26:23;17.67;;;3.90;;
1591;SDS011;789;51.612;7.510;2023-01-13T14:28:51;13.67;;;4.37;;
1591;SDS011;789;51.612;7.510;2023-01-13T14:31:19;13.90;;;4.70;;
1591;SDS011;789;51.612;7.510;2023-01-13T14:33:47;17.10;;;4.40;;
1591;SDS011;789;51.612;7.510;2023-01-13T14:36:17;13.97;;;4.40;;
1591;SDS011;789;51.612;7.510;2023-01-13T14:38:46;11.37;;;4.20;;
1591;SDS011;789;51.612;7.510;2023-01-13T14:41:28;12.53;;;3.77;;
1591;SDS011;789;51.612;7.510;2023-01-13T14:43:58;15.37;;;4.00;;
1591;SDS011;789;51.612;7.510;2023-01-13T14:46:35;12.40;;;3.97;;
1591;SDS011;789;51.612;7.510;2023-01-13T14:49:02;16.80;;;4.17;;
1591;SDS011;789;51.612;7.510;2023-01-13T14:51:29;14.77;;;4.13;;
1591;SDS011;789;51.612;7.510;2023-01-13T14:54:02;18.00;;;4.50;;
1591;SDS011;789;51.612;7.510;2023-01-13T14:56:51;13.53;;;3.80;;
1591;SDS011;789;51.612;7.510;2023-01-13T15:07:55;9.27;;;3.55;;
1591;SDS011;789;51.612;7.510;2023-01-13T15:10:24;9.23;;;3.00;;
1591;SDS011;789;51.612;7.510;2023-01-13T15:12:59;10.93;;;4.17;;
1591;SDS011;789;51.612;7.510;2023-01-13T15:15:31;8.73;;;3.60;;
1591;SDS011;789;51.612;7.510;2023-01-13T15:17:59;9.90;;;3.57;;
1591;SDS011;789;51.612;7.510;2023-01-13T15:20:30;9.48;;;3.65;;
1591;SDS011;789;51.612;7.510;2023-01-13T15:22:56;7.13;;;3.17;;
1591;SDS011;789;51.612;7.510;2023-01-13T15:25:25;9.97;;;4.40;;
1591;SDS011;789;51.612;7.510;2023-01-13T15:27:59;11.00;;;5.00;;
1591;SDS011;789;51.612;7.510;2023-01-13T15:30:26;9.53;;;4.40;;
1591;SDS011;789;51.612;7.510;2023-01-13T15:32:54;14.30;;;6.50;;
1591;SDS011;789;51.612;7.510;2023-01-13T15:35:22;11.67;;;4.90;;
1591;SDS011;789;51.612;7.510;2023-01-13T15:37:50;16.33;;;4.60;;
1591;SDS011;789;51.612;7.510;2023-01-13T15:40:21;24.87;;;5.00;;
1591;SDS011;789;51.612;7.510;2023-01-13T15:42:49;14.83;;;5.03;;
1591;SDS011;789;51.612;7.510;2023-01-13T15:45:35;14.23;;;5.20;;
1591;SDS011;789;51.612;7.510;2023-01-13T15:48:21;12.90;;;4.87;;
1591;SDS011;789;51.612;7.510;2023-01-13T15:50:49;11.63;;;4.57;;
1591;SDS011;789;51.612;7.510;2023-01-13T15:53:15;13.63;;;4.63;;
1591;SDS011;789;51.612;7.510;2023-01-13T15:55:42;11.97;;;4.50;;
1591;SDS011;789;51.612;7.510;2023-01-13T15:58:12;13.37;;;4.27;;
1591;SDS011;789;51.612;7.510;2023-01-13T16:00:53;13.40;;;4.70;;
1591;SDS011;789;51.612;7.510;2023-01-13T16:03:20;14.07;;;4.37;;
1591;SDS011;789;51.612;7.510;2023-01-13T16:05:46;11.60;;;5.00;;
1591;SDS011;789;51.612;7.510;2023-01-13T16:08:16;11.10;;;4.40;;
1591;SDS011;789;51.612;7.510;2023-01-13T16:10:46;16.20;;;4.77;;
1591;SDS011;789;51.612;7.510;2023-01-13T16:13:14;16.83;;;5.00;;
1591;SDS011;789;51.612;7.510;2023-01-13T16:15:42;14.63;;;4.90;;